sensor_id;sensor_type;location;lat;lon;timestamp;pressure;altitude;pressure_sealevel;temperature;humidity
12879;BME280;20617;49.476;10.986;2023-05-25T00:01:20;98739.06;;;12.37;100.00
12879;BME280;20617;49.476;10.986;2023-05-25T00:03:25;98733.97;;;12.34;100.00
12879;BME280;20617;49.476;10.986;2023-05-25T00:05:33;98730.50;;;12.33;100.00
12879;BME280;20617;49.476;10.986;2023-05-25T00:07:38;98729.34;;;12.40;100.00
12879;BME280;20617;49.476;10.986;2023-05-25T00:09:44;98726.72;;;12.40;100.00
12879;BME280;20617;49.476;10.986;2023-05-25T00:11:49;98723.53;;;12.34;100.00
12879;BME280;20617;49.476;10.986;2023-05-25T00:13:54;98720.13;;;12.32;100.00
12879;BME280;20617;49.476;10.986;2023-05-25T00:15:58;98719.28;;;12.31;100.00
12879;BME280;20617;49.476;10.986;2023-05-25T00:18:06;98718.44;;;12.31;100.00
12879;BME280;20617;49.476;10.986;2023-05-25T00:20:11;98712.69;;;12.22;100.00
12879;BME280;20617;49.476;10.986;2023-05-25T00:22:17;98714.59;;;12.19;100.00
12879;BME280;20617;49.476;10.986;2023-05-25T00:24:22;98707.91;;;12.12;100.00
12879;BME280;20617;49.476;10.986;2023-05-25T00:26:27;98718.22;;;12.15;100.00
12879;BME280;20617;49.476;10.986;2023-05-25T00:28:32;98714.03;;;12.11;100.00
12879;BME280;20617;49.476;10.986;2023-05-25T00:30:37;98710.75;;;12.06;100.00
12879;BME280;20617;49.476;10.986;2023-05-25T00:32:42;98716.78;;;12.08;100.00
12879;BME280;20617;49.476;10.986;2023-05-25T00:34:49;98710.63;;;12.09;100.00
12879;BME280;20617;49.476;10.986;2023-05-25T00:36:54;98712.84;;;11.97;100.00
12879;BME280;20617;49.476;10.986;2023-05-25T00:39:01;98713.16;;;11.90;100.00
12879;BME280;20617;49.476;10.986;2023-05-25T00:41:06;98714.84;;;11.91;100.00
12879;BME280;20617;49.476;10.986;2023-05-25T00:43:11;98707.16;;;11.88;100.00
12879;BME280;20617;49.476;10.986;2023-05-25T00:45:17;98707.16;;;11.88;100.00
12879;BME280;20617;49.476;10.986;2023-05-25T00:47:23;98707.16;;;11.88;100.00
12879;BME280;20617;49.476;10.986;2023-05-25T00:49:30;98704.53;;;11.88;100.00
12879;BME280;20617;49.476;10.986;2023-05-25T00:51:38;98709.00;;;11.84;100.00
12879;BME280;20617;49.476;10.986;2023-05-25T00:53:43;98701.59;;;11.73;100.00
12879;BME280;20617;49.476;10.986;2023-05-25T00:55:51;98696.66;;;11.66;100.00
12879;BME280;20617;49.476;10.986;2023-05-25T00:57:59;98708.03;;;11.65;100.00
12879;BME280;20617;49.476;10.986;2023-05-25T01:00:07;98709.00;;;11.62;100.00
12879;BME280;20617;49.476;10.986;2023-05-25T01:02:13;98708.06;;;11.63;100.00
12879;BME280;20617;49.476;10.986;2023-05-25T01:04:20;98714.88;;;11.67;100.00
12879;BME280;20617;49.476;10.986;2023-05-25T01:06:29;98709.91;;;11.61;100.00
12879;BME280;20617;49.476;10.986;2023-05-25T01:08:39;98713.34;;;11.62;100.00
12879;BME280;20617;49.476;10.986;2023-05-25T01:10:47;98720.03;;;11.47;100.00
12879;BME280;20617;49.476;10.986;2023-05-25T01:12:54;98714.84;;;11.45;100.00
12879;BME280;20617;49.476;10.986;2023-05-25T01:15:01;98708.06;;;11.41;100.00
12879;BME280;20617;49.476;10.986;2023-05-25T01:17:09;98705.34;;;11.44;100.00
12879;BME280;20617;49.476;10.986;2023-05-25T01:19:14;98705.22;;;11.47;100.00
12879;BME280;20617;49.476;10.986;2023-05-25T01:21:25;98706.03;;;11.49;100.00
12879;BME280;20617;49.476;10.986;2023-05-25T01:23:33;98707.72;;;11.50;100.00
12879;BME280;20617;49.476;10.986;2023-05-25T01:25:43;98709.22;;;11.56;100.00
12879;BME280;20617;49.476;10.986;2023-05-25T01:27:53;98709.41;;;11.51;100.00
12879;BME280;20617;49.476;10.986;2023-05-25T01:29:58;98707.03;;;11.45;100.00
12879;BME280;20617;49.476;10.986;2023-05-25T01:32:04;98715.03;;;11.41;100.00
12879;BME280;20617;49.476;10.986;2023-05-25T01:34:10;98709.72;;;11.44;100.00
12879;BME280;20617;49.476;10.986;2023-05-25T01:36:16;98707.81;;;11.47;100.00
12879;BME280;20617;49.476;10.986;2023-05-25T01:38:24;98712.13;;;11.48;100.00
12879;BME280;20617;49.476;10.986;2023-05-25T01:40:29;98711.28;;;11.48;100.00
12879;BME280;20617;49.476;10.986;2023-05-25T01:42:35;98711.41;;;11.45;100.00
12879;BME280;20617;49.476;10.986;2023-05-25T01:44:40;98704.53;;;11.42;100.00
12879;BME280;20617;49.476;10.986;2023-05-25T01:46:45;98707.38;;;11.36;100.00
12879;BME280;20617;49.476;10.986;2023-05-25T01:49:01;98712.72;;;11.33;100.00
12879;BME280;20617;49.476;10.986;2023-05-25T01:51:16;98709.53;;;11.25;100.00
12879;BME280;20617;49.476;10.986;2023-05-25T01:53:28;98719.19;;;11.23;100.00
12879;BME280;20617;49.476;10.986;2023-05-25T01:55:36;98714.75;;;11.25;100.00
12879;BME280;20617;49.476;10.986;2023-05-25T01:57:49;98717.25;;;11.28;100.00
12879;BME280;20617;49.476;10.986;2023-05-25T01:59:59;98712.16;;;11.25;100.00
12879;BME280;20617;49.476;10.986;2023-05-25T02:02:14;98711.47;;;11.20;100.00
12879;BME280;20617;49.476;10.986;2023-05-25T02:04:22;98719.28;;;11.20;100.00
12879;BME280;20617;49.476;10.986;2023-05-25T02:06:28;98723.16;;;11.09;100.00
12879;BME280;20617;49.476;10.986;2023-05-25T02:08:42;98723.16;;;11.09;100.00
12879;BME280;20617;49.476;10.986;2023-05-25T02:10:47;98731.88;;;11.08;100.00
12879;BME280;20617;49.476;10.986;2023-05-25T02:12:52;98725.75;;;11.09;100.00
12879;BME280;20617;49.476;10.986;2023-05-25T02:14:57;98725.97;;;11.03;100.00
12879;BME280;20617;49.476;10.986;2023-05-25T02:17:03;98725.25;;;11.00;100.00
12879;BME280;20617;49.476;10.986;2023-05-25T02:19:08;98718.38;;;10.97;100.00
12879;BME280;20617;49.476;10.986;2023-05-25T02:21:15;98728.97;;;10.93;100.00
12879;BME280;20617;49.476;10.986;2023-05-25T02:23:20;98723.16;;;10.84;100.00
12879;BME280;20617;49.476;10.986;2023-05-25T02:25:28;98711.97;;;10.82;100.00
12879;BME280;20617;49.476;10.986;2023-05-25T02:27:34;98715.66;;;10.77;100.00
12879;BME280;20617;49.476;10.986;2023-05-25T02:29:40;98716.53;;;10.76;100.00
12879;BME280;20617;49.476;10.986;2023-05-25T02:31:46;98716.25;;;10.85;100.00
12879;BME280;20617;49.476;10.986;2023-05-25T02:33:51;98713.44;;;10.90;100.00
12879;BME280;20617;49.476;10.986;2023-05-25T02:35:56;98715.13;;;10.91;100.00
12879;BME280;20617;49.476;10.986;2023-05-25T02:38:01;98715.22;;;10.89;100.00
12879;BME280;20617;49.476;10.986;2023-05-25T02:40:08;98725.63;;;10.89;100.00
12879;BME280;20617;49.476;10.986;2023-05-25T02:42:15;98724.06;;;10.85;100.00
12879;BME280;20617;49.476;10.986;2023-05-25T02:44:22;98730.94;;;10.86;100.00
12879;BME280;20617;49.476;10.986;2023-05-25T02:46:27;98727.38;;;10.88;100.00
12879;BME280;20617;49.476;10.986;2023-05-25T02:48:32;98723.16;;;10.84;100.00
12879;BME280;20617;49.476;10.986;2023-05-25T02:50:36;98722.31;;;10.84;100.00
12879;BME280;20617;49.476;10.986;2023-05-25T02:52:46;98716.28;;;10.83;100.00
12879;BME280;20617;49.476;10.986;2023-05-25T02:54:50;98723.34;;;10.80;100.00
12879;BME280;20617;49.476;10.986;2023-05-25T02:57:03;98719.91;;;10.79;100.00
12879;BME280;20617;49.476;10.986;2023-05-25T02:59:12;98722.41;;;10.82;100.00
12879;BME280;20617;49.476;10.986;2023-05-25T03:01:17;98718.91;;;10.82;100.00
12879;BME280;20617;49.476;10.986;2023-05-25T03:03:26;98725.00;;;10.82;100.00
12879;BME280;20617;49.476;10.986;2023-05-25T03:05:31;98726.06;;;10.77;100.00
12879;BME280;20617;49.476;10.986;2023-05-25T03:07:37;98723.63;;;10.72;100.00
12879;BME280;20617;49.476;10.986;2023-05-25T03:09:43;98719.34;;;10.70;100.00
12879;BME280;20617;49.476;10.986;2023-05-25T03:11:48;98720.16;;;10.72;100.00
12879;BME280;20617;49.476;10.986;2023-05-25T03:13:55;98720.97;;;10.74;100.00
12879;BME280;20617;49.476;10.986;2023-05-25T03:16:05;98730.47;;;10.75;100.00
12879;BME280;20617;49.476;10.986;2023-05-25T03:18:10;98721.94;;;10.71;100.00
12879;BME280;20617;49.476;10.986;2023-05-25T03:20:16;98726.28;;;10.71;100.00
12879;BME280;20617;49.476;10.986;2023-05-25T03:22:22;98729.84;;;10.68;100.00
12879;BME280;20617;49.476;10.986;2023-05-25T03:24:28;98724.69;;;10.67;100.00
12879;BME280;20617;49.476;10.986;2023-05-25T03:26:35;98728.00;;;10.70;100.00
12879;BME280;20617;49.476;10.986;2023-05-25T03:28:40;98738.38;;;10.72;100.00
12879;BME280;20617;49.476;10.986;2023-05-25T03:30:46;98743.63;;;10.70;100.00
12879;BME280;20617;49.476;10.986;2023-05-25T03:32:54;98738.38;;;10.72;100.00
12879;BME280;20617;49.476;10.986;2023-05-25T03:35:06;98747.00;;;10.74;100.00
12879;BME280;20617;49.476;10.986;2023-05-25T03:37:11;98746.19;;;10.72;100.00
12879;BME280;20617;49.476;10.986;2023-05-25T03:39:16;98749.66;;;10.72;100.00
12879;BME280;20617;49.476;10.986;2023-05-25T03:41:25;98753.22;;;10.70;100.00
12879;BME280;20617;49.476;10.986;2023-05-25T03:43:31;98759.38;;;10.67;100.00
12879;BME280;20617;49.476;10.986;2023-05-25T03:45:37;98756.09;;;10.62;100.00
12879;BME280;20617;49.476;10.986;2023-05-25T03:47:44;98766.75;;;10.54;100.00
12879;BME280;20617;49.476;10.986;2023-05-25T03:49:51;98770.16;;;10.56;100.00
12879;BME280;20617;49.476;10.986;2023-05-25T03:51:57;98776.47;;;10.49;100.00
12879;BME280;20617;49.476;10.986;2023-05-25T03:54:02;98774.06;;;10.43;100.00
12879;BME280;20617;49.476;10.986;2023-05-25T03:56:08;98771.69;;;10.37;100.00
12879;BME280;20617;49.476;10.986;2023-05-25T03:58:13;98777.78;;;10.36;100.00
12879;BME280;20617;49.476;10.986;2023-05-25T04:00:20;98780.50;;;10.33;100.00
12879;BME280;20617;49.476;10.986;2023-05-25T04:02:25;98773.56;;;10.32;100.00
12879;BME280;20617;49.476;10.986;2023-05-25T04:04:30;98767.50;;;10.33;100.00
12879;BME280;20617;49.476;10.986;2023-05-25T04:06:37;98773.66;;;10.29;100.00
12879;BME280;20617;49.476;10.986;2023-05-25T04:08:43;98778.03;;;10.28;100.00
12879;BME280;20617;49.476;10.986;2023-05-25T04:10:48;98770.13;;;10.31;100.00
12879;BME280;20617;49.476;10.986;2023-05-25T04:12:54;98774.31;;;10.35;100.00
12879;BME280;20617;49.476;10.986;2023-05-25T04:15:00;98771.56;;;10.40;100.00
12879;BME280;20617;49.476;10.986;2023-05-25T04:17:21;98781.69;;;10.49;100.00
12879;BME280;20617;49.476;10.986;2023-05-25T04:19:26;98782.31;;;10.56;100.00
12879;BME280;20617;49.476;10.986;2023-05-25T04:21:31;98783.09;;;10.59;100.00
12879;BME280;20617;49.476;10.986;2023-05-25T04:23:41;98775.91;;;10.66;100.00
12879;BME280;20617;49.476;10.986;2023-05-25T04:25:46;98775.75;;;10.71;100.00
12879;BME280;20617;49.476;10.986;2023-05-25T04:27:52;98777.34;;;10.75;100.00
12879;BME280;20617;49.476;10.986;2023-05-25T04:30:20;98785.13;;;10.76;100.00
12879;BME280;20617;49.476;10.986;2023-05-25T04:32:52;98783.41;;;10.75;100.00
12879;BME280;20617;49.476;10.986;2023-05-25T04:35:06;98789.31;;;10.80;100.00
12879;BME280;20617;49.476;10.986;2023-05-25T04:37:17;98793.44;;;10.86;100.00
12879;BME280;20617;49.476;10.986;2023-05-25T04:39:25;98793.25;;;10.92;100.00
12879;BME280;20617;49.476;10.986;2023-05-25T04:41:31;98788.13;;;10.89;100.00
12879;BME280;20617;49.476;10.986;2023-05-25T04:43:39;98799.47;;;10.88;100.00
12879;BME280;20617;49.476;10.986;2023-05-25T04:46:06;98790.88;;;10.84;100.00
12879;BME280;20617;49.476;10.986;2023-05-25T04:48:12;98792.72;;;10.82;100.00
12879;BME280;20617;49.476;10.986;2023-05-25T04:50:17;98797.44;;;10.71;100.00
12879;BME280;20617;49.476;10.986;2023-05-25T04:52:24;98799.03;;;10.75;100.00
12879;BME280;20617;49.476;10.986;2023-05-25T04:54:33;98797.00;;;10.83;100.00
12879;BME280;20617;49.476;10.986;2023-05-25T04:56:38;98807.38;;;10.85;100.00
12879;BME280;20617;49.476;10.986;2023-05-25T04:58:43;98800.31;;;10.88;100.00
12879;BME280;20617;49.476;10.986;2023-05-25T05:00:48;98806.69;;;10.80;100.00
12879;BME280;20617;49.476;10.986;2023-05-25T05:02:53;98809.19;;;10.83;100.00
12879;BME280;20617;49.476;10.986;2023-05-25T05:04:59;98809.19;;;10.83;100.00
12879;BME280;20617;49.476;10.986;2023-05-25T05:07:04;98814.22;;;10.87;100.00
12879;BME280;20617;49.476;10.986;2023-05-25T05:09:10;98807.69;;;11.01;100.00
12879;BME280;20617;49.476;10.986;2023-05-25T05:11:18;98810.03;;;11.08;100.00
12879;BME280;20617;49.476;10.986;2023-05-25T05:13:25;98814.13;;;11.16;100.00
12879;BME280;20617;49.476;10.986;2023-05-25T05:15:31;98813.50;;;11.09;100.00
12879;BME280;20617;49.476;10.986;2023-05-25T05:17:36;98827.41;;;11.08;100.00
12879;BME280;20617;49.476;10.986;2023-05-25T05:19:42;98821.13;;;11.14;100.00
12879;BME280;20617;49.476;10.986;2023-05-25T05:21:48;98817.31;;;11.24;100.00
12879;BME280;20617;49.476;10.986;2023-05-25T05:23:54;98816.84;;;11.36;100.00
12879;BME280;20617;49.476;10.986;2023-05-25T05:25:59;98822.53;;;11.47;100.00
12879;BME280;20617;49.476;10.986;2023-05-25T05:28:08;98815.63;;;11.46;100.00
12879;BME280;20617;49.476;10.986;2023-05-25T05:30:15;98823.09;;;11.55;100.00
12879;BME280;20617;49.476;10.986;2023-05-25T05:32:19;98823.97;;;11.56;100.00
12879;BME280;20617;49.476;10.986;2023-05-25T05:34:25;98821.13;;;11.62;100.00
12879;BME280;20617;49.476;10.986;2023-05-25T05:36:37;98819.91;;;11.71;100.00
12879;BME280;20617;49.476;10.986;2023-05-25T05:38:58;98816.22;;;11.76;100.00
12879;BME280;20617;49.476;10.986;2023-05-25T05:41:04;98813.31;;;11.86;100.00
12879;BME280;20617;49.476;10.986;2023-05-25T05:43:18;98827.19;;;11.86;100.00
12879;BME280;20617;49.476;10.986;2023-05-25T05:45:23;98818.00;;;11.99;100.00
12879;BME280;20617;49.476;10.986;2023-05-25T05:47:29;98817.16;;;11.99;100.00
12879;BME280;20617;49.476;10.986;2023-05-25T05:49:36;98823.25;;;11.98;100.00
12879;BME280;20617;49.476;10.986;2023-05-25T05:51:41;98818.31;;;12.14;100.00
12879;BME280;20617;49.476;10.986;2023-05-25T05:53:48;98822.94;;;12.07;100.00
12879;BME280;20617;49.476;10.986;2023-05-25T05:55:53;98825.34;;;12.12;100.00
12879;BME280;20617;49.476;10.986;2023-05-25T05:58:00;98825.59;;;12.28;100.00
12879;BME280;20617;49.476;10.986;2023-05-25T06:00:11;98830.44;;;12.15;100.00
12879;BME280;20617;49.476;10.986;2023-05-25T06:02:17;98828.94;;;12.31;100.00
12879;BME280;20617;49.476;10.986;2023-05-25T06:04:22;98831.63;;;12.50;100.00
12879;BME280;20617;49.476;10.986;2023-05-25T06:06:31;98827.41;;;12.68;100.00
12879;BME280;20617;49.476;10.986;2023-05-25T06:08:36;98829.41;;;12.83;100.00
12879;BME280;20617;49.476;10.986;2023-05-25T06:10:41;98824.91;;;12.87;100.00
12879;BME280;20617;49.476;10.986;2023-05-25T06:12:48;98824.75;;;12.90;100.00
12879;BME280;20617;49.476;10.986;2023-05-25T06:14:53;98828.16;;;12.92;100.00
12879;BME280;20617;49.476;10.986;2023-05-25T06:17:01;98816.66;;;12.96;100.00
12879;BME280;20617;49.476;10.986;2023-05-25T06:19:06;98816.88;;;13.12;100.00
12879;BME280;20617;49.476;10.986;2023-05-25T06:21:11;98814.59;;;13.23;100.00
12879;BME280;20617;49.476;10.986;2023-05-25T06:23:16;98816.09;;;13.30;100.00
12879;BME280;20617;49.476;10.986;2023-05-25T06:25:21;98810.38;;;13.41;100.00
12879;BME280;20617;49.476;10.986;2023-05-25T06:27:26;98813.84;;;13.42;100.00
12879;BME280;20617;49.476;10.986;2023-05-25T06:29:31;98812.91;;;13.43;100.00
12879;BME280;20617;49.476;10.986;2023-05-25T06:31:36;98811.94;;;13.64;100.00
12879;BME280;20617;49.476;10.986;2023-05-25T06:33:44;98817.38;;;13.78;100.00
12879;BME280;20617;49.476;10.986;2023-05-25T06:35:49;98824.59;;;13.92;100.00
12879;BME280;20617;49.476;10.986;2023-05-25T06:37:59;98826.88;;;14.00;100.00
12879;BME280;20617;49.476;10.986;2023-05-25T06:40:05;98822.53;;;14.18;100.00
12879;BME280;20617;49.476;10.986;2023-05-25T06:42:11;98824.72;;;14.27;100.00
12879;BME280;20617;49.476;10.986;2023-05-25T06:44:26;98820.16;;;14.31;100.00
12879;BME280;20617;49.476;10.986;2023-05-25T06:46:35;98828.50;;;14.39;100.00
12879;BME280;20617;49.476;10.986;2023-05-25T06:48:45;98816.56;;;14.52;100.00
12879;BME280;20617;49.476;10.986;2023-05-25T06:50:50;98817.72;;;14.64;100.00
12879;BME280;20617;49.476;10.986;2023-05-25T06:52:55;98826.72;;;14.76;100.00
12879;BME280;20617;49.476;10.986;2023-05-25T06:55:01;98817.72;;;14.81;100.00
12879;BME280;20617;49.476;10.986;2023-05-25T06:57:07;98818.09;;;14.91;100.00
12879;BME280;20617;49.476;10.986;2023-05-25T06:59:12;98827.22;;;14.84;100.00
12879;BME280;20617;49.476;10.986;2023-05-25T07:01:17;98823.66;;;14.85;100.00
12879;BME280;20617;49.476;10.986;2023-05-25T07:03:22;98823.66;;;14.85;100.00
12879;BME280;20617;49.476;10.986;2023-05-25T07:05:30;98809.84;;;14.81;100.00
12879;BME280;20617;49.476;10.986;2023-05-25T07:07:35;98814.69;;;14.89;100.00
12879;BME280;20617;49.476;10.986;2023-05-25T07:09:40;98814.78;;;14.87;100.00
12879;BME280;20617;49.476;10.986;2023-05-25T07:11:45;98824.19;;;14.91;100.00
12879;BME280;20617;49.476;10.986;2023-05-25T07:13:50;98821.41;;;14.94;100.00
12879;BME280;20617;49.476;10.986;2023-05-25T07:15:55;98810.69;;;14.99;100.00
12879;BME280;20617;49.476;10.986;2023-05-25T07:18:01;98812.50;;;15.14;100.00
12879;BME280;20617;49.476;10.986;2023-05-25T07:20:07;98815.81;;;15.18;100.00
12879;BME280;20617;49.476;10.986;2023-05-25T07:22:16;98807.34;;;15.30;100.00
12879;BME280;20617;49.476;10.986;2023-05-25T07:24:22;98796.50;;;15.36;100.00
12879;BME280;20617;49.476;10.986;2023-05-25T07:26:27;98807.34;;;15.30;100.00
12879;BME280;20617;49.476;10.986;2023-05-25T07:28:32;98804.44;;;15.35;100.00
12879;BME280;20617;49.476;10.986;2023-05-25T07:30:38;98807.59;;;15.42;100.00
12879;BME280;20617;49.476;10.986;2023-05-25T07:32:44;98814.56;;;15.58;100.00
12879;BME280;20617;49.476;10.986;2023-05-25T07:34:49;98805.22;;;15.70;100.00
12879;BME280;20617;49.476;10.986;2023-05-25T07:36:54;98809.38;;;15.74;100.00
12879;BME280;20617;49.476;10.986;2023-05-25T07:39:01;98819.22;;;15.87;100.00
12879;BME280;20617;49.476;10.986;2023-05-25T07:41:07;98815.00;;;16.00;100.00
12879;BME280;20617;49.476;10.986;2023-05-25T07:43:14;98814.72;;;16.04;100.00
12879;BME280;20617;49.476;10.986;2023-05-25T07:45:19;98813.88;;;16.04;100.00
12879;BME280;20617;49.476;10.986;2023-05-25T07:47:24;98811.59;;;16.14;100.00
12879;BME280;20617;49.476;10.986;2023-05-25T07:49:29;98809.13;;;16.11;100.00
12879;BME280;20617;49.476;10.986;2023-05-25T07:51:34;98806.94;;;16.19;100.00
12879;BME280;20617;49.476;10.986;2023-05-25T07:53:39;98811.81;;;16.25;100.00
12879;BME280;20617;49.476;10.986;2023-05-25T07:55:47;98812.94;;;16.21;100.00
12879;BME280;20617;49.476;10.986;2023-05-25T07:57:52;98820.13;;;16.17;100.00
12879;BME280;20617;49.476;10.986;2023-05-25T07:59:57;98821.41;;;16.26;100.00
12879;BME280;20617;49.476;10.986;2023-05-25T08:02:03;98824.63;;;16.31;100.00
12879;BME280;20617;49.476;10.986;2023-05-25T08:04:08;98813.56;;;16.40;100.00
12879;BME280;20617;49.476;10.986;2023-05-25T08:06:14;98817.03;;;16.57;100.00
12879;BME280;20617;49.476;10.986;2023-05-25T08:08:18;98819.06;;;16.67;100.00
12879;BME280;20617;49.476;10.986;2023-05-25T08:10:25;98820.88;;;16.81;99.34
12879;BME280;20617;49.476;10.986;2023-05-25T08:12:35;98817.19;;;17.00;99.27
12879;BME280;20617;49.476;10.986;2023-05-25T08:14:51;98823.69;;;17.08;97.64
12879;BME280;20617;49.476;10.986;2023-05-25T08:16:55;98820.13;;;17.09;97.08
12879;BME280;20617;49.476;10.986;2023-05-25T08:19:01;98807.63;;;17.13;95.87
12879;BME280;20617;49.476;10.986;2023-05-25T08:21:06;98813.16;;;17.08;96.75
12879;BME280;20617;49.476;10.986;2023-05-25T08:23:11;98812.78;;;17.00;97.79
12879;BME280;20617;49.476;10.986;2023-05-25T08:25:16;98807.06;;;17.08;99.29
12879;BME280;20617;49.476;10.986;2023-05-25T08:27:20;98815.31;;;17.16;96.74
12879;BME280;20617;49.476;10.986;2023-05-25T08:29:28;98806.50;;;17.17;96.63
12879;BME280;20617;49.476;10.986;2023-05-25T08:31:33;98807.94;;;17.23;97.34
12879;BME280;20617;49.476;10.986;2023-05-25T08:33:38;98797.78;;;17.31;97.12
12879;BME280;20617;49.476;10.986;2023-05-25T08:35:43;98800.41;;;17.45;95.67
12879;BME280;20617;49.476;10.986;2023-05-25T08:37:50;98802.94;;;17.32;94.95
12879;BME280;20617;49.476;10.986;2023-05-25T08:39:55;98803.13;;;17.43;95.27
12879;BME280;20617;49.476;10.986;2023-05-25T08:42:04;98801.53;;;17.55;94.36
12879;BME280;20617;49.476;10.986;2023-05-25T08:44:11;98804.06;;;17.57;95.26
12879;BME280;20617;49.476;10.986;2023-05-25T08:46:27;98797.75;;;17.59;93.53
12879;BME280;20617;49.476;10.986;2023-05-25T08:48:35;98805.09;;;17.69;93.66
12879;BME280;20617;49.476;10.986;2023-05-25T08:50:44;98799.53;;;17.73;92.53
12879;BME280;20617;49.476;10.986;2023-05-25T08:52:54;98807.72;;;17.83;92.77
12879;BME280;20617;49.476;10.986;2023-05-25T08:55:03;98803.19;;;17.99;91.32
12879;BME280;20617;49.476;10.986;2023-05-25T08:57:12;98808.72;;;18.09;90.59
12879;BME280;20617;49.476;10.986;2023-05-25T08:59:29;98803.16;;;18.14;89.18
12879;BME280;20617;49.476;10.986;2023-05-25T09:01:43;98812.34;;;18.21;89.76
12879;BME280;20617;49.476;10.986;2023-05-25T09:03:50;98806.59;;;18.28;89.32
12879;BME280;20617;49.476;10.986;2023-05-25T09:05:56;98806.34;;;18.46;89.69
12879;BME280;20617;49.476;10.986;2023-05-25T09:08:01;98807.28;;;18.45;88.15
12879;BME280;20617;49.476;10.986;2023-05-25T09:10:07;98809.88;;;18.59;88.41
12879;BME280;20617;49.476;10.986;2023-05-25T09:12:15;98805.44;;;18.72;89.31
12879;BME280;20617;49.476;10.986;2023-05-25T09:14:20;98809.03;;;18.71;85.68
12879;BME280;20617;49.476;10.986;2023-05-25T09:16:26;98814.25;;;18.59;86.15
12879;BME280;20617;49.476;10.986;2023-05-25T09:18:35;98810.72;;;18.72;85.54
12879;BME280;20617;49.476;10.986;2023-05-25T09:20:41;98806.69;;;18.67;84.94
12879;BME280;20617;49.476;10.986;2023-05-25T09:22:48;98807.38;;;18.70;86.20
12879;BME280;20617;49.476;10.986;2023-05-25T09:24:53;98809.00;;;18.59;86.59
12879;BME280;20617;49.476;10.986;2023-05-25T09:26:58;98822.91;;;18.48;86.63
12879;BME280;20617;49.476;10.986;2023-05-25T09:29:04;98821.41;;;18.44;87.28
12879;BME280;20617;49.476;10.986;2023-05-25T09:31:09;98803.41;;;18.50;87.51
12879;BME280;20617;49.476;10.986;2023-05-25T09:33:14;98807.38;;;18.43;88.27
12879;BME280;20617;49.476;10.986;2023-05-25T09:35:24;98808.34;;;18.55;88.15
12879;BME280;20617;49.476;10.986;2023-05-25T09:37:30;98809.72;;;18.48;89.12
12879;BME280;20617;49.476;10.986;2023-05-25T09:39:35;98811.19;;;18.52;89.64
12879;BME280;20617;49.476;10.986;2023-05-25T09:41:40;98806.56;;;18.55;89.16
12879;BME280;20617;49.476;10.986;2023-05-25T09:43:46;98810.59;;;18.61;89.37
12879;BME280;20617;49.476;10.986;2023-05-25T09:45:55;98800.59;;;18.66;90.42
12879;BME280;20617;49.476;10.986;2023-05-25T09:48:00;98802.75;;;18.74;90.32
12879;BME280;20617;49.476;10.986;2023-05-25T09:50:06;98806.78;;;18.80;90.22
12879;BME280;20617;49.476;10.986;2023-05-25T09:52:14;98811.63;;;18.86;89.19
12879;BME280;20617;49.476;10.986;2023-05-25T09:54:21;98806.56;;;18.83;90.12
12879;BME280;20617;49.476;10.986;2023-05-25T09:56:26;98811.00;;;18.95;89.22
12879;BME280;20617;49.476;10.986;2023-05-25T09:58:31;98810.81;;;18.98;88.33
12879;BME280;20617;49.476;10.986;2023-05-25T10:00:36;98800.03;;;18.88;89.92
12879;BME280;20617;49.476;10.986;2023-05-25T10:02:44;98810.25;;;18.93;89.42
12879;BME280;20617;49.476;10.986;2023-05-25T10:04:49;98807.22;;;18.99;89.31
12879;BME280;20617;49.476;10.986;2023-05-25T10:06:54;98806.91;;;19.04;89.40
12879;BME280;20617;49.476;10.986;2023-05-25T10:09:05;98805.22;;;19.15;89.00
12879;BME280;20617;49.476;10.986;2023-05-25T10:11:14;98806.81;;;19.18;86.86
12879;BME280;20617;49.476;10.986;2023-05-25T10:13:20;98807.88;;;19.15;87.49
12879;BME280;20617;49.476;10.986;2023-05-25T10:15:26;98816.94;;;19.24;87.65
12879;BME280;20617;49.476;10.986;2023-05-25T10:17:34;98817.34;;;19.31;87.43
12879;BME280;20617;49.476;10.986;2023-05-25T10:19:43;98812.31;;;19.40;88.18
12879;BME280;20617;49.476;10.986;2023-05-25T10:21:54;98813.34;;;19.51;88.19
12879;BME280;20617;49.476;10.986;2023-05-25T10:24:11;98814.41;;;19.61;85.40
12879;BME280;20617;49.476;10.986;2023-05-25T10:26:18;98800.66;;;19.68;84.31
12879;BME280;20617;49.476;10.986;2023-05-25T10:28:27;98810.19;;;19.58;84.86
12879;BME280;20617;49.476;10.986;2023-05-25T10:30:33;98808.81;;;19.65;85.06
12879;BME280;20617;49.476;10.986;2023-05-25T10:32:41;98805.84;;;19.70;85.23
12879;BME280;20617;49.476;10.986;2023-05-25T10:34:50;98807.84;;;19.79;84.58
12879;BME280;20617;49.476;10.986;2023-05-25T10:36:56;98801.28;;;19.85;84.37
12879;BME280;20617;49.476;10.986;2023-05-25T10:39:05;98803.09;;;19.84;84.87
12879;BME280;20617;49.476;10.986;2023-05-25T10:41:11;98797.22;;;19.92;84.60
12879;BME280;20617;49.476;10.986;2023-05-25T10:43:17;98795.63;;;20.02;84.05
12879;BME280;20617;49.476;10.986;2023-05-25T10:45:23;98798.50;;;19.99;84.16
12879;BME280;20617;49.476;10.986;2023-05-25T10:47:32;98793.19;;;19.99;82.62
12879;BME280;20617;49.476;10.986;2023-05-25T10:49:51;98793.50;;;20.07;82.63
12879;BME280;20617;49.476;10.986;2023-05-25T10:51:57;98795.69;;;20.13;83.74
12879;BME280;20617;49.476;10.986;2023-05-25T10:54:05;98796.91;;;20.21;82.79
12879;BME280;20617;49.476;10.986;2023-05-25T10:56:10;98789.44;;;20.15;82.63
12879;BME280;20617;49.476;10.986;2023-05-25T10:58:17;98784.06;;;20.16;82.60